DYU weather

Dushanbe Airport
Dushanbe, Districts of Republican Subordination, Tajikistan

Public forecast

Using degrees Celsius for public forecast. Weather courtesy of forecast.io.

METAR (pilot weather report)

Retrieved 2019/09/19 12:30 UTC (0 seconds ago):

UTDD 191230Z 27004MPS 9999 NSC 31/07 Q1016 R09/D NOSIG RMK QFE693/0925

TAF (pilot weather forecast)

Retrieved 2019/09/19 13:12 UTC (0 seconds ago):

TAF TAF UTDD 191200Z 1913/2001 VRB02MPS 6000 FEW066 SCT100 TEMPO 1913/1917 27006MPS